Time;durP1;ratioP1;P1;durP2;ratioP2;P2;SDS_P1;SDS_P2;PMS_P1;PMS_P2;Temp;Humidity;BMP_temperature;BMP_pressure;BME280_temperature;BME280_humidity;BME280_pressure;Samples;Min_cycle;Max_cycle;Signal;HPM_P1;HPM_P2
2022/08/15 00:00:13;;;;;;;5.65;3.67;;;20.00;99.90;;;;;;8322643;28;20034;-79
2022/08/15 00:04:14;;;;;;;4.45;2.83;;;20.00;99.90;;;;;;8324857;28;20108;-78
2022/08/15 00:08:17;;;;;;;9.43;3.05;;;20.10;99.90;;;;;;8319930;28;20029;-79
2022/08/15 00:12:19;;;;;;;4.07;3.25;;;20.20;99.90;;;;;;8324401;28;20021;-78
2022/08/15 00:16:21;;;;;;;4.20;2.58;;;20.00;99.90;;;;;;8317654;28;20037;-79
2022/08/15 00:20:21;;;;;;;4.32;2.92;;;19.80;99.90;;;;;;8328739;28;20021;-79
2022/08/15 00:24:25;;;;;;;3.72;2.40;;;19.70;99.90;;;;;;8322291;28;20064;-79
2022/08/15 00:28:27;;;;;;;4.50;2.70;;;19.60;99.90;;;;;;8319793;28;20045;-78
2022/08/15 00:32:28;;;;;;;3.55;2.70;;;19.70;99.90;;;;;;8322224;28;20026;-79
2022/08/15 00:36:30;;;;;;;3.90;3.10;;;19.80;99.90;;;;;;8326245;28;20587;-78
2022/08/15 00:41:38;;;;;;;3.60;2.70;;;19.90;99.90;;;;;;8319634;28;20033;-78
2022/08/15 00:44:54;;;;;;;5.43;2.88;;;19.80;99.90;;;;;;8320442;28;20527;-79
2022/08/15 00:48:55;;;;;;;6.65;3.10;;;19.70;99.90;;;;;;8328076;28;20081;-79
2022/08/15 00:52:56;;;;;;;6.40;3.30;;;19.70;99.90;;;;;;8327862;28;20048;-79
2022/08/15 00:57:09;;;;;;;4.15;3.10;;;19.70;99.90;;;;;;8319130;28;20033;-79
2022/08/15 01:01:12;;;;;;;4.15;3.13;;;19.60;99.90;;;;;;8322367;28;20052;-79
2022/08/15 01:05:15;;;;;;;5.18;3.17;;;19.60;99.90;;;;;;8326969;28;20040;-78
2022/08/15 01:09:17;;;;;;;4.82;2.88;;;19.40;99.90;;;;;;8326467;28;20497;-78
2022/08/15 01:13:18;;;;;;;6.13;3.13;;;19.30;99.90;;;;;;8324029;28;20053;-79
2022/08/15 01:17:18;;;;;;;4.40;3.13;;;19.20;99.90;;;;;;8326889;28;20059;-79
2022/08/15 01:21:52;;;;;;;5.47;2.97;;;19.20;99.90;;;;;;8327150;28;20064;-79
2022/08/15 01:26:03;;;;;;;5.32;3.20;;;19.00;99.90;;;;;;8319834;28;20375;-79
2022/08/15 01:30:08;;;;;;;3.05;2.75;;;18.90;99.90;;;;;;8319540;28;20507;-79
2022/08/15 01:34:08;;;;;;;5.13;3.00;;;18.70;99.90;;;;;;8325221;28;20089;-79
2022/08/15 01:38:20;;;;;;;4.47;2.97;;;18.40;99.90;;;;;;8318728;28;20456;-78
2022/08/15 01:42:29;;;;;;;4.72;3.05;;;18.20;99.90;;;;;;8312060;28;20021;-79
2022/08/15 01:46:37;;;;;;;4.72;3.03;;;18.30;99.90;;;;;;8313201;28;20021;-79
2022/08/15 01:50:47;;;;;;;4.05;2.88;;;18.30;99.90;;;;;;8315843;28;20025;-79
2022/08/15 01:54:50;;;;;;;5.32;3.63;;;18.10;99.90;;;;;;8319027;28;20057;-79
2022/08/15 01:58:51;;;;;;;5.97;3.35;;;18.10;99.90;;;;;;8315637;28;20029;-79
2022/08/15 02:02:51;;;;;;;4.63;2.97;;;18.10;99.90;;;;;;8325267;28;20025;-79
2022/08/15 02:06:52;;;;;;;4.93;3.13;;;18.00;99.90;;;;;;8320933;28;20624;-79
2022/08/15 02:10:53;;;;;;;5.70;2.67;;;18.10;99.90;;;;;;8322870;28;20029;-79
2022/08/15 02:14:54;;;;;;;4.70;2.97;;;18.30;99.90;;;;;;8311848;28;20029;-79
2022/08/15 02:18:55;;;;;;;3.85;2.95;;;18.70;99.90;;;;;;8313206;28;20024;-79
2022/08/15 02:22:56;;;;;;;3.83;2.65;;;18.90;99.90;;;;;;8325040;28;20036;-79
2022/08/15 02:26:56;;;;;;;3.40;2.53;;;19.00;99.90;;;;;;8322435;28;20135;-79
2022/08/15 02:30:57;;;;;;;3.60;2.95;;;19.10;99.90;;;;;;8324592;28;20112;-79
2022/08/15 02:34:59;;;;;;;5.80;2.45;;;19.20;99.90;;;;;;8324124;28;20036;-79
2022/08/15 02:39:02;;;;;;;5.20;3.00;;;19.20;99.90;;;;;;8325128;28;20025;-79
2022/08/15 02:43:08;;;;;;;3.78;2.60;;;19.20;99.90;;;;;;8317969;28;20033;-78
2022/08/15 02:47:14;;;;;;;3.95;2.90;;;19.30;99.90;;;;;;8314947;28;20090;-79
2022/08/15 02:51:18;;;;;;;3.55;2.83;;;19.40;99.90;;;;;;8326965;28;20041;-79
2022/08/15 02:55:19;;;;;;;4.97;3.25;;;19.30;99.90;;;;;;8323438;28;20034;-79
2022/08/15 02:59:20;;;;;;;6.95;3.03;;;19.30;99.90;;;;;;8320373;28;20033;-79
2022/08/15 03:03:20;;;;;;;3.50;2.67;;;19.30;99.90;;;;;;8323905;28;20026;-78
2022/08/15 03:07:21;;;;;;;4.25;2.63;;;19.20;99.90;;;;;;8323687;28;20033;-79
2022/08/15 03:11:21;;;;;;;3.33;2.28;;;19.20;99.90;;;;;;8316811;28;20086;-79
2022/08/15 03:15:31;;;;;;;2.47;2.08;;;19.20;99.90;;;;;;8323452;28;20034;-78
2022/08/15 03:19:32;;;;;;;4.85;2.45;;;19.20;99.90;;;;;;8303862;28;20113;-79
2022/08/15 03:23:33;;;;;;;2.95;2.30;;;19.30;99.90;;;;;;8331691;28;20385;-78
2022/08/15 03:27:34;;;;;;;3.83;2.00;;;19.20;99.90;;;;;;8330221;28;20401;-79
2022/08/15 03:31:35;;;;;;;4.88;2.45;;;19.10;99.90;;;;;;8323511;28;20124;-79
2022/08/15 03:35:42;;;;;;;3.15;2.45;;;19.20;99.90;;;;;;8326514;28;20653;-79
2022/08/15 03:39:43;;;;;;;3.15;2.28;;;19.20;99.90;;;;;;8327998;28;20029;-79
2022/08/15 03:43:47;;;;;;;3.67;2.65;;;19.20;99.90;;;;;;8320220;28;20030;-79
2022/08/15 03:47:47;;;;;;;3.22;2.45;;;19.10;99.90;;;;;;8330217;28;20030;-79
2022/08/15 03:51:48;;;;;;;3.55;2.58;;;19.10;99.90;;;;;;8324567;28;20052;-78
2022/08/15 03:55:49;;;;;;;3.65;2.40;;;19.10;99.90;;;;;;8324867;28;20022;-77
2022/08/15 03:59:51;;;;;;;4.88;3.03;;;19.10;99.90;;;;;;8327710;28;20064;-78
2022/08/15 04:03:52;;;;;;;3.70;2.90;;;18.70;99.90;;;;;;8321599;28;20018;-77
2022/08/15 04:07:52;;;;;;;4.05;2.80;;;18.30;99.90;;;;;;8326263;28;20565;-78
2022/08/15 04:11:54;;;;;;;4.13;2.70;;;18.10;99.90;;;;;;8324411;28;20018;-78
2022/08/15 04:15:57;;;;;;;3.22;2.83;;;17.80;99.90;;;;;;8347639;22;20045;-79
2022/08/15 04:19:57;;;;;;;4.78;2.50;;;17.70;99.90;;;;;;8328800;28;20064;-80
2022/08/15 04:23:58;;;;;;;3.85;2.60;;;17.50;99.90;;;;;;8331760;28;20025;-80
2022/08/15 04:27:59;;;;;;;3.13;2.28;;;17.30;99.90;;;;;;8330565;28;20052;-80
2022/08/15 04:32:00;;;;;;;3.38;2.70;;;17.20;99.90;;;;;;8331555;28;20576;-81
2022/08/15 04:36:08;;;;;;;4.07;3.20;;;17.10;99.90;;;;;;8329329;28;20085;-80
2022/08/15 04:40:10;;;;;;;5.35;3.70;;;17.10;99.90;;;;;;8329220;28;20023;-80
2022/08/15 04:44:11;;;;;;;4.68;3.88;;;17.10;99.90;;;;;;8329267;28;20122;-78
2022/08/15 04:48:15;;;;;;;5.20;3.55;;;17.10;99.90;;;;;;8329698;28;20100;-79
2022/08/15 04:52:18;;;;;;;5.15;3.58;;;17.30;99.90;;;;;;8330523;28;20025;-79
2022/08/15 04:56:19;;;;;;;4.93;3.65;;;17.10;99.90;;;;;;8328358;28;20109;-78
2022/08/15 05:00:23;;;;;;;6.95;3.63;;;17.10;99.90;;;;;;8328752;28;20025;-78
2022/08/15 05:04:24;;;;;;;5.55;3.90;;;17.10;99.90;;;;;;8328924;28;20049;-80
2022/08/15 05:08:27;;;;;;;5.18;3.35;;;17.10;99.90;;;;;;8328552;28;20025;-81
2022/08/15 05:12:28;;;;;;;5.22;3.80;;;17.20;99.90;;;;;;8328616;28;20044;-80
2022/08/15 05:16:29;;;;;;;6.88;3.42;;;17.20;99.90;;;;;;8328820;28;20106;-79
2022/08/15 05:20:30;;;;;;;4.22;3.60;;;17.00;99.90;;;;;;8325889;28;20045;-80
2022/08/15 05:24:31;;;;;;;4.38;3.55;;;17.20;99.90;;;;;;8329155;28;20029;-80
2022/08/15 05:28:31;;;;;;;4.30;3.58;;;17.20;99.90;;;;;;8328568;28;20576;-80
2022/08/15 05:32:33;;;;;;;4.88;3.70;;;17.00;99.90;;;;;;8329053;28;20029;-80
2022/08/15 05:36:34;;;;;;;5.53;3.95;;;17.10;99.90;;;;;;8328047;28;20026;-78
2022/08/15 05:40:45;;;;;;;6.25;4.50;;;17.20;99.90;;;;;;8324736;28;20030;-80
2022/08/15 05:45:05;;;;;;;5.63;3.95;;;17.30;99.90;;;;;;8325295;28;20055;-79
2022/08/15 05:49:17;;;;;;;4.68;3.92;;;17.00;99.90;;;;;;8326635;28;20028;-80
2022/08/15 05:53:24;;;;;;;4.68;3.70;;;17.00;99.90;;;;;;8328287;28;20497;-80
2022/08/15 05:57:35;;;;;;;6.20;4.13;;;17.00;99.90;;;;;;8346144;28;20041;-81
2022/08/15 06:01:45;;;;;;;4.57;3.95;;;16.80;99.90;;;;;;8330216;28;20105;-81
2022/08/15 06:05:50;;;;;;;4.53;3.90;;;16.80;99.90;;;;;;8329879;28;20460;-81
2022/08/15 06:09:59;;;;;;;4.82;3.65;;;16.90;99.90;;;;;;8328422;28;20030;-81
2022/08/15 06:14:25;;;;;;;5.07;3.95;;;17.40;99.90;;;;;;8329429;28;20112;-81
2022/08/15 06:18:33;;;;;;;4.10;3.58;;;18.60;99.90;;;;;;8328538;28;20034;-81
2022/08/15 06:23:00;;;;;;;5.05;3.40;;;19.70;99.90;;;;;;8329972;28;20025;-81
2022/08/15 06:27:12;;;;;;;3.53;3.17;;;20.30;99.90;;;;;;8324583;28;20025;-81
2022/08/15 06:31:26;;;;;;;4.03;3.13;;;21.00;99.90;;;;;;8330987;28;20026;-82
2022/08/15 06:35:50;;;;;;;4.00;3.03;;;21.50;99.90;;;;;;8329418;28;20056;-81
2022/08/15 06:40:20;;;;;;;4.80;3.20;;;22.00;99.90;;;;;;8330791;28;20025;-82
2022/08/15 06:44:22;;;;;;;3.28;2.92;;;22.30;99.90;;;;;;8330779;28;20409;-81
2022/08/15 06:48:30;;;;;;;4.45;2.85;;;22.80;99.90;;;;;;8336789;28;20493;-80
2022/08/15 06:52:31;;;;;;;5.05;2.85;;;22.80;99.90;;;;;;8332150;28;20087;-81
2022/08/15 06:56:56;;;;;;;2.90;2.60;;;22.60;99.90;;;;;;8332678;28;20471;-81
2022/08/15 07:01:07;;;;;;;4.03;2.85;;;22.40;99.90;;;;;;8330246;28;20070;-81
2022/08/15 07:05:13;;;;;;;4.22;3.00;;;23.30;99.90;;;;;;8332698;28;20060;-80
2022/08/15 07:09:49;;;;;;;4.03;2.88;;;24.10;99.90;;;;;;8333848;28;20035;-82
2022/08/15 07:14:06;;;;;;;3.03;2.72;;;24.30;99.90;;;;;;8327531;28;20032;-82
2022/08/15 07:18:28;;;;;;;4.57;3.25;;;24.50;99.90;;;;;;8331951;28;20518;-81
2022/08/15 07:22:29;;;;;;;2.60;2.40;;;24.50;99.90;;;;;;8333451;28;20024;-81
2022/08/15 07:26:38;;;;;;;4.20;2.50;;;24.70;99.90;;;;;;8332328;28;20136;-81
2022/08/15 07:31:14;;;;;;;4.03;2.60;;;24.80;99.90;;;;;;8326505;28;20037;-81
2022/08/15 07:35:24;;;;;;;3.67;2.38;;;24.90;99.90;;;;;;8332352;28;20104;-81
2022/08/15 07:39:40;;;;;;;2.43;2.23;;;25.00;99.90;;;;;;8333306;28;20433;-81
2022/08/15 07:43:43;;;;;;;3.60;2.38;;;25.20;99.90;;;;;;8332163;28;20433;-86
2022/08/15 07:47:58;;;;;;;2.58;2.20;;;25.00;99.90;;;;;;8332324;28;20033;-82
2022/08/15 07:52:23;;;;;;;5.65;2.20;;;25.30;99.90;;;;;;8332001;28;20044;-84
2022/08/15 07:56:28;;;;;;;2.53;1.90;;;25.20;99.90;;;;;;8331417;28;20025;-84
2022/08/15 08:00:30;;;;;;;3.00;2.30;;;25.30;99.90;;;;;;8332106;28;20091;-82
2022/08/15 08:04:33;;;;;;;3.13;2.30;;;25.50;99.90;;;;;;8332568;28;20022;-83
2022/08/15 08:08:44;;;;;;;2.17;1.92;;;25.50;99.90;;;;;;8334131;28;20017;-84
2022/08/15 08:12:59;;;;;;;3.25;2.10;;;26.20;99.90;;;;;;8332540;28;20022;-83
2022/08/15 08:17:30;;;;;;;3.13;1.92;;;26.40;99.90;;;;;;8333497;28;20052;-82
2022/08/15 08:21:36;;;;;;;2.80;1.70;;;26.10;99.90;;;;;;8334029;28;20060;-82
2022/08/15 08:26:14;;;;;;;2.22;1.60;;;26.30;99.90;;;;;;8331152;28;20627;-83
2022/08/15 08:30:21;;;;;;;3.13;1.70;;;26.30;99.90;;;;;;8331991;28;20505;-81
2022/08/15 08:34:46;;;;;;;2.17;1.73;;;26.10;99.90;;;;;;8332162;28;20493;-82
2022/08/15 08:39:12;;;;;;;2.80;1.75;;;26.20;99.90;;;;;;8333153;28;20029;-82
2022/08/15 08:43:42;;;;;;;1.92;1.48;;;26.10;99.90;;;;;;8331573;28;20029;-81
2022/08/15 08:47:49;;;;;;;2.08;1.85;;;26.50;99.90;;;;;;8325861;28;20018;-82
2022/08/15 08:51:59;;;;;;;2.92;1.95;;;26.40;99.90;;;;;;8329643;28;20112;-83
2022/08/15 08:56:13;;;;;;;3.95;1.95;;;26.50;99.90;;;;;;8325750;28;20029;-83
2022/08/15 09:00:20;;;;;;;2.30;1.80;;;26.90;99.90;;;;;;8332089;28;20028;-81
2022/08/15 09:04:27;;;;;;;2.42;1.90;;;26.80;99.90;;;;;;8331922;28;20025;-83
2022/08/15 09:08:32;;;;;;;3.42;2.25;;;26.40;99.90;;;;;;8331820;28;20508;-83
2022/08/15 09:17:12;;;;;;;3.28;2.13;;;26.70;99.90;;;;;;8329913;28;20084;-81
2022/08/15 09:21:13;;;;;;;3.00;2.17;;;27.00;99.90;;;;;;8330885;28;20026;-81
2022/08/15 09:25:13;;;;;;;2.35;1.90;;;26.90;99.90;;;;;;8329673;28;20158;-82
2022/08/15 09:29:26;;;;;;;3.30;2.38;;;27.20;99.90;;;;;;8330072;28;20025;-83
2022/08/15 09:34:14;;;;;;;2.58;2.10;;;27.30;99.90;;;;;;8330750;28;20025;-82
2022/08/15 09:38:37;;;;;;;2.30;1.85;;;27.10;99.90;;;;;;8289980;28;20128;-82
2022/08/15 09:43:03;;;;;;;2.25;1.88;;;27.20;99.90;;;;;;8329982;28;20587;-83
2022/08/15 09:47:28;;;;;;;3.05;1.80;;;27.20;99.90;;;;;;8331894;28;20068;-82
2022/08/15 09:51:59;;;;;;;5.60;2.03;;;27.00;99.70;;;;;;8332080;28;20022;-82
2022/08/15 09:56:09;;;;;;;2.00;1.80;;;27.20;99.90;;;;;;8324354;28;20025;-82
2022/08/15 10:00:15;;;;;;;2.20;1.90;;;27.30;99.50;;;;;;8331510;28;20034;-83
2022/08/15 10:04:22;;;;;;;2.75;1.80;;;27.40;98.40;;;;;;8329269;28;20031;-81
2022/08/15 10:08:51;;;;;;;2.15;1.67;;;27.40;97.00;;;;;;8330724;28;20091;-83
2022/08/15 10:13:07;;;;;;;2.95;2.00;;;27.40;98.70;;;;;;8331685;28;20099;-82
2022/08/15 10:17:39;;;;;;;3.13;1.70;;;27.20;97.90;;;;;;8521238;22;20064;-78
2022/08/15 10:21:44;;;;;;;1.60;1.50;;;27.00;99.90;;;;;;8360689;28;20100;-79
2022/08/15 10:26:08;;;;;;;3.50;1.80;;;27.40;97.90;;;;;;8366665;28;20035;-77
2022/08/15 10:30:15;;;;;;;1.90;1.70;;;27.30;98.40;;;;;;8394858;28;20036;-78
2022/08/15 10:34:38;;;;;;;1.70;1.55;;;27.80;98.80;;;;;;8398657;28;20020;-77
2022/08/15 10:39:06;;;;;;;2.95;1.73;;;28.70;97.10;;;;;;8398096;28;20083;-78
2022/08/15 10:43:21;;;;;;;3.97;1.92;;;29.30;92.70;;;;;;8395507;28;20055;-79
2022/08/15 10:47:24;;;;;;;3.15;1.60;;;30.20;92.90;;;;;;8396970;28;20315;-78
2022/08/15 10:51:38;;;;;;;4.72;1.63;;;30.00;91.60;;;;;;8397978;28;20028;-79
2022/08/15 10:55:40;;;;;;;2.47;1.77;;;30.70;90.60;;;;;;8392840;28;20036;-79
2022/08/15 10:59:48;;;;;;;1.80;1.58;;;30.50;87.30;;;;;;8388448;28;20111;-79
2022/08/15 11:03:53;;;;;;;3.22;1.90;;;30.60;90.80;;;;;;8391265;28;20068;-78
2022/08/15 11:07:55;;;;;;;2.38;1.95;;;30.90;87.60;;;;;;8397822;28;20492;-79
2022/08/15 11:12:00;;;;;;;1.80;1.70;;;31.70;82.80;;;;;;8398127;28;20051;-78
2022/08/15 11:16:18;;;;;;;1.95;1.75;;;31.40;78.90;;;;;;8398377;28;20105;-79
2022/08/15 11:20:24;;;;;;;1.92;1.70;;;31.30;77.90;;;;;;8397571;28;20377;-79
2022/08/15 11:24:37;;;;;;;2.90;1.85;;;31.40;82.60;;;;;;8398588;28;20043;-79
2022/08/15 11:28:41;;;;;;;3.35;2.22;;;31.90;78.50;;;;;;8391357;28;20103;-79
2022/08/15 11:32:41;;;;;;;2.42;2.05;;;32.50;75.20;;;;;;8397918;28;20235;-78
2022/08/15 11:36:42;;;;;;;3.22;1.98;;;32.90;72.50;;;;;;8396975;28;20400;-78
2022/08/15 11:40:50;;;;;;;3.17;2.00;;;33.00;70.50;;;;;;8395952;28;20035;-77
2022/08/15 11:45:13;;;;;;;4.00;1.92;;;33.40;70.10;;;;;;8398425;28;20459;-78
2022/08/15 11:49:25;;;;;;;2.42;2.17;;;34.10;64.20;;;;;;8396914;28;20020;-79
2022/08/15 11:53:35;;;;;;;3.00;2.33;;;34.40;65.60;;;;;;8396599;28;20020;-79
2022/08/15 11:57:44;;;;;;;2.30;1.90;;;34.30;61.50;;;;;;8396164;28;20052;-79
2022/08/15 12:02:00;;;;;;;3.63;1.97;;;34.10;60.50;;;;;;8396823;28;20259;-79
2022/08/15 12:06:12;;;;;;;4.35;2.15;;;34.00;57.80;;;;;;8392157;28;20067;-79
2022/08/15 12:10:31;;;;;;;3.17;2.30;;;34.20;59.10;;;;;;8394369;28;20473;-79
2022/08/15 12:14:32;;;;;;;3.10;1.95;;;33.60;59.40;;;;;;8392360;28;20292;-78
2022/08/15 12:18:34;;;;;;;2.75;2.10;;;34.20;59.00;;;;;;8393060;28;20443;-79
2022/08/15 12:22:39;;;;;;;2.78;2.05;;;34.40;57.70;;;;;;8397670;28;20048;-79
2022/08/15 12:26:40;;;;;;;3.10;2.00;;;35.60;55.60;;;;;;8393017;28;20086;-78
2022/08/15 12:30:40;;;;;;;2.67;1.70;;;35.70;53.20;;;;;;8387474;28;20088;-78
2022/08/15 12:34:47;;;;;;;3.03;1.85;;;34.90;53.80;;;;;;8397069;28;20082;-79
2022/08/15 12:38:48;;;;;;;2.50;1.95;;;35.90;53.40;;;;;;8395554;28;20024;-79
2022/08/15 12:42:49;;;;;;;3.15;2.10;;;36.10;51.90;;;;;;8394783;28;20056;-78
2022/08/15 12:46:50;;;;;;;4.47;1.80;;;36.80;51.10;;;;;;8392464;28;20017;-79
2022/08/15 12:50:51;;;;;;;2.45;1.80;;;35.80;48.40;;;;;;8394111;28;20103;-79
2022/08/15 12:54:52;;;;;;;5.45;1.90;;;35.70;48.10;;;;;;8388832;28;20028;-79
2022/08/15 12:58:53;;;;;;;3.35;1.98;;;36.30;48.80;;;;;;8395423;28;20511;-78
2022/08/15 13:02:54;;;;;;;2.25;2.05;;;37.40;46.10;;;;;;8394147;28;20055;-79
2022/08/15 13:06:57;;;;;;;4.93;2.25;;;36.50;48.60;;;;;;8394111;28;20024;-79
2022/08/15 13:10:58;;;;;;;2.22;1.73;;;37.30;45.00;;;;;;8395179;28;20040;-80
2022/08/15 13:14:58;;;;;;;2.38;1.65;;;37.80;46.00;;;;;;8395623;28;20441;-79
2022/08/15 13:19:11;;;;;;;4.10;2.08;;;36.90;44.90;;;;;;8393925;28;20024;-78
2022/08/15 13:27:33;;;;;;;2.63;1.75;;;36.90;46.70;;;;;;8389015;28;20400;-79
2022/08/15 13:31:34;;;;;;;4.25;2.00;;;38.20;44.00;;;;;;8394630;28;20448;-79
2022/08/15 13:35:36;;;;;;;3.70;1.85;;;38.70;42.90;;;;;;8393955;28;20020;-79
2022/08/15 13:39:37;;;;;;;2.08;1.52;;;38.80;45.70;;;;;;8391557;28;20024;-79
2022/08/15 13:43:40;;;;;;;1.67;1.45;;;38.70;41.50;;;;;;8392636;28;20396;-78
2022/08/15 13:47:41;;;;;;;1.70;1.60;;;38.30;41.40;;;;;;8384884;28;20080;-79
2022/08/15 13:51:45;;;;;;;2.08;1.70;;;38.00;43.50;;;;;;8384076;28;20021;-79
2022/08/15 13:55:46;;;;;;;1.73;1.63;;;38.10;43.30;;;;;;8383321;28;20086;-79
2022/08/15 13:59:47;;;;;;;1.98;1.77;;;38.40;43.50;;;;;;8384118;28;20028;-79
2022/08/15 14:03:57;;;;;;;2.25;1.58;;;39.50;41.90;;;;;;8383846;28;20029;-80
2022/08/15 14:07:58;;;;;;;1.83;1.70;;;40.80;39.90;;;;;;8377899;28;20034;-79
2022/08/15 14:11:59;;;;;;;3.25;1.65;;;40.20;39.00;;;;;;8379111;28;20044;-79
2022/08/15 14:16:00;;;;;;;3.13;1.80;;;39.00;42.60;;;;;;8384017;28;20395;-78
2022/08/15 14:20:01;;;;;;;3.75;1.70;;;39.80;40.10;;;;;;8380928;28;20495;-79
2022/08/15 14:24:03;;;;;;;3.00;2.00;;;37.40;42.60;;;;;;8401707;28;20445;-78
2022/08/15 14:28:06;;;;;;;2.33;1.83;;;37.70;43.40;;;;;;8400399;28;20017;-78
2022/08/15 14:32:09;;;;;;;3.00;1.58;;;39.10;41.40;;;;;;8391439;28;20100;-79
2022/08/15 14:36:10;;;;;;;2.88;2.13;;;38.80;41.30;;;;;;8398883;28;20033;-79
2022/08/15 14:40:23;;;;;;;3.42;1.90;;;37.20;45.40;;;;;;8401653;28;20055;-79
2022/08/15 14:44:24;;;;;;;3.40;1.85;;;38.10;42.10;;;;;;8404448;28;20023;-78
2022/08/15 14:48:27;;;;;;;6.10;1.95;;;39.00;40.90;;;;;;8399098;28;20535;-79
2022/08/15 14:52:28;;;;;;;1.83;1.58;;;39.00;41.30;;;;;;8399197;28;20020;-79
2022/08/15 14:56:30;;;;;;;3.20;1.88;;;36.30;43.60;;;;;;8396444;28;20392;-79
2022/08/15 15:00:31;;;;;;;3.67;1.70;;;33.90;47.60;;;;;;8393042;28;20025;-79
2022/08/15 15:04:32;;;;;;;2.30;1.70;;;36.40;44.70;;;;;;8396919;28;20033;-78
2022/08/15 15:08:32;;;;;;;2.08;1.60;;;37.20;43.20;;;;;;8393860;28;20111;-79
2022/08/15 15:12:33;;;;;;;3.13;1.80;;;37.70;41.20;;;;;;8405034;28;20017;-79
2022/08/15 15:16:35;;;;;;;4.13;2.10;;;34.50;45.00;;;;;;8394887;28;20056;-78
2022/08/15 15:20:36;;;;;;;3.83;2.08;;;31.40;50.90;;;;;;8404512;28;20081;-78
2022/08/15 15:24:38;;;;;;;3.78;1.70;;;30.20;53.60;;;;;;8408610;28;20477;-77
2022/08/15 15:28:42;;;;;;;2.22;1.55;;;31.30;51.30;;;;;;8404612;28;20077;-78
2022/08/15 15:32:42;;;;;;;3.42;1.98;;;29.90;52.60;;;;;;8389995;28;20086;-78
2022/08/15 15:36:45;;;;;;;3.17;2.00;;;29.10;55.30;;;;;;8401943;28;20029;-78
2022/08/15 15:40:46;;;;;;;4.43;2.15;;;27.30;59.50;;;;;;8408565;28;20027;-78
2022/08/15 15:44:47;;;;;;;5.10;1.80;;;26.00;63.20;;;;;;8402269;28;20036;-78
2022/08/15 15:48:50;;;;;;;4.93;1.85;;;25.40;67.60;;;;;;8407523;28;20027;-78
2022/08/15 15:52:53;;;;;;;6.15;2.22;;;25.60;69.70;;;;;;8401922;28;20036;-78
2022/08/15 15:56:54;;;;;;;5.00;1.60;;;25.30;70.10;;;;;;8391008;28;20036;-78
2022/08/15 16:00:55;;;;;;;2.38;2.00;;;25.10;71.60;;;;;;8381932;28;20087;-77
2022/08/15 16:04:55;;;;;;;3.13;1.90;;;24.40;74.90;;;;;;8381614;28;20535;-78
2022/08/15 16:08:58;;;;;;;2.45;1.95;;;24.20;77.50;;;;;;8377858;28;20035;-78
2022/08/15 16:13:02;;;;;;;2.05;1.80;;;24.00;79.00;;;;;;8386319;28;20070;-78
2022/08/15 16:17:15;;;;;;;4.03;1.70;;;23.70;81.70;;;;;;8385958;28;20047;-77
2022/08/15 16:21:33;;;;;;;1.92;1.75;;;23.50;83.20;;;;;;8404632;28;20033;-78
2022/08/15 16:25:49;;;;;;;3.03;1.60;;;23.50;85.40;;;;;;8392724;28;20016;-78
2022/08/15 16:30:14;;;;;;;3.00;1.60;;;23.50;87.10;;;;;;8403651;28;20021;-78
2022/08/15 16:34:43;;;;;;;1.45;1.10;;;23.40;86.80;;;;;;8396571;28;20400;-78
2022/08/15 16:38:53;;;;;;;4.05;1.83;;;23.10;88.80;;;;;;8385698;28;20016;-78
2022/08/15 16:43:13;;;;;;;1.83;1.50;;;22.90;90.50;;;;;;8394722;28;20012;-78
2022/08/15 16:48:05;;;;;;;6.10;1.50;;;22.70;91.20;;;;;;8399653;28;20025;-78
2022/08/15 16:52:23;;;;;;;2.00;1.50;;;22.60;91.80;;;;;;8339727;28;20028;-78
2022/08/15 16:56:48;;;;;;;2.80;1.50;;;22.60;93.00;;;;;;8358429;28;20447;-78
2022/08/15 17:00:58;;;;;;;2.00;1.45;;;22.60;93.00;;;;;;8401347;28;20085;-78
2022/08/15 17:05:03;;;;;;;4.03;1.53;;;22.60;94.60;;;;;;8378924;28;20092;-77
2022/08/15 17:09:09;;;;;;;2.75;1.90;;;22.60;91.70;;;;;;8378181;28;20029;-76
2022/08/15 17:13:34;;;;;;;3.88;1.92;;;22.20;95.60;;;;;;8385902;28;20021;-77
2022/08/15 17:17:42;;;;;;;2.38;1.70;;;21.50;98.60;;;;;;8390467;28;20510;-77
2022/08/15 17:21:59;;;;;;;3.47;2.10;;;20.70;99.90;;;;;;8380991;28;20488;-77
2022/08/15 17:26:13;;;;;;;5.43;2.35;;;20.30;99.90;;;;;;8387965;28;20472;-78
2022/08/15 17:30:20;;;;;;;5.72;2.35;;;20.00;99.90;;;;;;8382178;28;20028;-78
2022/08/15 17:34:27;;;;;;;2.90;2.25;;;19.90;99.90;;;;;;8382825;28;20130;-78
2022/08/15 17:38:32;;;;;;;2.13;1.88;;;19.90;99.90;;;;;;8379410;28;20024;-77
2022/08/15 17:42:36;;;;;;;3.58;2.17;;;19.70;99.90;;;;;;8381358;28;20047;-77
2022/08/15 17:46:42;;;;;;;2.72;1.90;;;19.60;99.90;;;;;;8390026;28;20035;-78
2022/08/15 17:50:52;;;;;;;2.70;2.10;;;19.60;99.90;;;;;;8385049;28;20028;-78
2022/08/15 17:55:06;;;;;;;4.07;2.30;;;19.50;99.90;;;;;;8390357;28;20054;-77
2022/08/15 17:59:15;;;;;;;2.80;2.50;;;19.40;99.90;;;;;;8407721;28;20281;-78
2022/08/15 18:03:16;;;;;;;6.03;2.42;;;19.40;99.90;;;;;;8408408;28;20028;-78
2022/08/15 18:07:24;;;;;;;2.42;2.22;;;19.40;99.90;;;;;;8399038;28;20027;-78
2022/08/15 18:11:39;;;;;;;3.83;2.42;;;19.40;99.90;;;;;;8400978;28;20028;-77
2022/08/15 18:15:59;;;;;;;3.05;2.50;;;19.40;99.90;;;;;;8407450;28;20476;-76
2022/08/15 18:20:11;;;;;;;2.80;2.55;;;19.40;99.90;;;;;;8393244;28;20021;-78
2022/08/15 18:24:38;;;;;;;4.32;2.22;;;19.30;99.90;;;;;;8392069;28;20524;-77
2022/08/15 18:28:38;;;;;;;4.15;2.47;;;19.40;99.90;;;;;;8399901;28;20035;-78
2022/08/15 18:32:46;;;;;;;4.05;2.40;;;19.30;99.90;;;;;;8402255;28;20459;-77
2022/08/15 18:36:50;;;;;;;3.15;2.45;;;19.20;99.90;;;;;;8388439;28;20027;-77
2022/08/15 18:41:06;;;;;;;4.22;2.30;;;19.10;99.90;;;;;;8397595;28;20078;-77
2022/08/15 18:45:22;;;;;;;2.85;2.50;;;19.00;99.90;;;;;;8388439;28;20039;-77
2022/08/15 18:49:23;;;;;;;3.10;2.42;;;18.90;99.90;;;;;;8383043;28;20032;-77
2022/08/15 18:53:25;;;;;;;3.85;2.40;;;18.80;99.90;;;;;;8396575;28;20109;-78
2022/08/15 18:57:41;;;;;;;2.67;2.45;;;18.70;99.90;;;;;;8390273;28;20029;-78
2022/08/15 19:02:14;;;;;;;3.80;2.20;;;18.50;99.90;;;;;;8389462;28;20032;-77
2022/08/15 19:06:35;;;;;;;5.18;2.47;;;18.40;99.90;;;;;;8385182;28;20408;-77
2022/08/15 19:10:38;;;;;;;4.72;2.42;;;18.30;99.90;;;;;;8388695;28;20025;-78
2022/08/15 19:14:41;;;;;;;3.47;2.30;;;18.10;99.90;;;;;;8387494;28;20031;-77
2022/08/15 19:19:13;;;;;;;3.38;2.40;;;18.00;99.90;;;;;;8389176;28;20025;-78
2022/08/15 19:23:14;;;;;;;4.65;2.22;;;17.90;99.90;;;;;;8385155;28;20155;-77
2022/08/15 19:27:23;;;;;;;2.83;1.83;;;17.70;99.90;;;;;;8389100;28;20027;-78
2022/08/15 19:31:47;;;;;;;2.33;2.03;;;17.60;99.90;;;;;;8388760;28;20367;-78
2022/08/15 19:36:02;;;;;;;2.33;1.67;;;17.50;99.90;;;;;;8388908;28;20067;-78
2022/08/15 19:40:15;;;;;;;2.20;1.80;;;17.30;99.90;;;;;;8388043;28;20024;-78
2022/08/15 19:44:34;;;;;;;2.10;1.90;;;17.00;99.90;;;;;;8387149;28;20036;-78
2022/08/15 19:54:01;;;;;;;3.55;1.63;;;16.50;99.90;;;;;;8392801;28;20115;-78
2022/08/15 19:58:33;;;;;;;2.20;2.00;;;16.40;99.90;;;;;;8397426;28;20076;-78
2022/08/15 20:02:53;;;;;;;3.42;2.05;;;16.20;99.90;;;;;;8395868;28;20056;-78
2022/08/15 20:07:14;;;;;;;3.03;2.47;;;15.80;99.90;;;;;;8387260;28;20078;-78
2022/08/15 20:11:23;;;;;;;3.83;2.33;;;15.50;99.90;;;;;;8394778;28;20263;-78
2022/08/15 20:15:34;;;;;;;4.18;2.20;;;15.30;99.90;;;;;;8392190;28;20404;-78
2022/08/15 20:19:47;;;;;;;2.50;2.20;;;15.30;99.90;;;;;;8395163;28;20099;-78
2022/08/15 20:24:01;;;;;;;4.65;2.20;;;15.10;99.90;;;;;;8396347;28;20432;-78
2022/08/15 20:28:07;;;;;;;2.70;2.15;;;15.10;99.90;;;;;;8388984;28;20024;-78
2022/08/15 20:32:24;;;;;;;2.53;2.13;;;15.00;99.90;;;;;;8394658;28;20024;-78
2022/08/15 20:36:26;;;;;;;2.30;2.10;;;14.90;99.90;;;;;;8395124;28;20032;-78
2022/08/15 20:40:33;;;;;;;2.63;2.30;;;14.80;99.90;;;;;;8395431;28;20021;-78
2022/08/15 20:44:41;;;;;;;2.40;2.20;;;15.00;99.90;;;;;;8395992;28;20283;-78
2022/08/15 20:48:49;;;;;;;2.40;1.88;;;14.80;99.90;;;;;;8395349;28;20074;-78
2022/08/15 20:52:50;;;;;;;4.68;2.22;;;14.50;99.90;;;;;;8389774;28;20063;-78
2022/08/15 20:56:51;;;;;;;3.22;2.10;;;14.40;99.90;;;;;;8395762;28;20056;-78
2022/08/15 21:01:25;;;;;;;4.32;2.40;;;14.30;99.90;;;;;;8396234;28;20025;-78
2022/08/15 21:05:51;;;;;;;4.72;2.33;;;14.20;99.90;;;;;;8394413;28;20526;-78
2022/08/15 21:09:56;;;;;;;4.05;2.20;;;14.10;99.90;;;;;;8395042;28;20385;-78
2022/08/15 21:14:14;;;;;;;2.97;2.40;;;14.20;99.90;;;;;;8394060;28;20119;-78
2022/08/15 21:18:42;;;;;;;2.75;2.20;;;14.20;99.90;;;;;;8396195;28;20496;-78
2022/08/15 21:22:55;;;;;;;5.30;2.45;;;14.30;99.90;;;;;;8394685;28;20051;-78
2022/08/15 21:27:10;;;;;;;2.33;2.00;;;14.20;99.90;;;;;;8387594;28;20040;-78
2022/08/15 21:31:29;;;;;;;2.58;2.28;;;14.20;99.90;;;;;;8394292;28;20021;-78
2022/08/15 21:35:47;;;;;;;3.47;2.22;;;14.30;99.90;;;;;;8393937;28;20116;-78
2022/08/15 21:39:55;;;;;;;3.53;2.25;;;14.10;99.90;;;;;;8387116;28;20025;-78
2022/08/15 21:44:11;;;;;;;3.17;2.60;;;13.90;99.90;;;;;;8393360;28;20039;-78
2022/08/15 21:48:28;;;;;;;2.50;2.15;;;13.90;99.90;;;;;;8393661;28;20189;-78